Terminal Aerodrome Forecast
Issued by NWS

Home | Current Version | Previous Version | Text Only | Print | Product List | Glossary On
Versions: 1 2 3 4 5 6 7 8 9 10 11 12 13 14 15 16 17 18 19 20 21 22
721
FTUS41 KBTV 061604 AAB
TAFSLK
TAF AMD
KSLK 061604Z 0616/0712 22010G15KT 3SM -SHSN BR SCT012 OVC020
      TEMPO 0616/0618 1SM -SHSN BR BKN012
     FM061800 23012G19KT P6SM VCSH SCT012 OVC020
      TEMPO 0618/0620 2SM -SHSN BKN012
     FM070000 23008KT P6SM BKN040
     FM070700 24009KT P6SM VCSH BKN035=

USA.gov is the U.S. government's official web portal to all federal, state and local government web resources and services.